L'etrangere — FW5161 — position and weather

sailwx.info

Track history (hours):
 
Tides and Currents Weather Stations Pressure Air Temp Water Temp Dewpoint Dewpoint Depression Visibility Wind Speed Wind Dir Waves Ship Positions

L'etrangere

Last reported at 2017-Oct-19 14:24 UTC. Time now 2017-Oct-22 06:45 UTC.
Position N 47°45' W 003°21'.

Length 10 m.

Type: Sailing vessel. MMSI: 227382420.

Date/timePositionNaut miles runAvg speedWind from/ knotsBaromVisibWave heightAir tempDewpointWater temp
2017-Oct-19 14:24N 47°45' W 003°21'0 0.0
2017-Oct-19 13:57N 47°45' W 003°21'0 0.0
2017-Oct-19 13:30N 47°45' W 003°21'0 0.0
2017-Oct-19 13:00N 47°45' W 003°21'0 0.0
2017-Oct-19 12:30N 47°45' W 003°21'0 0.0
2017-Oct-19 12:00N 47°45' W 003°21'0 0.0
2017-Oct-19 11:30N 47°45' W 003°21'0 0.0
2017-Oct-19 11:00N 47°45' W 003°21'0 0.0
2017-Oct-19 10:30N 47°45' W 003°21'0 0.0
2017-Oct-19 10:00N 47°45' W 003°21'1 3.0
2017-Oct-19 09:31N 47°43' W 003°22'2 3.8
2017-Oct-19 09:01N 47°42' W 003°23'2 3.5
2017-Oct-19 08:30N 47°40' W 003°25'2 0.1
2017-Oct-18 14:34N 47°39' W 003°27'1 1.6
2017-Oct-18 14:00N 47°39' W 003°26'1 2.6
2017-Oct-18 13:30N 47°40' W 003°25'2 3.3
2017-Oct-18 13:00N 47°42' W 003°23'1 1.5
2017-Oct-18 12:29N 47°42' W 003°23'0 0.0
2017-Oct-18 11:59N 47°42' W 003°23'0 0.0
2017-Oct-18 11:29N 47°42' W 003°23'0 0.0
2017-Oct-18 10:59N 47°42' W 003°23'2 3.1
2017-Oct-18 10:29N 47°43' W 003°21'  
2017-Oct-14 14:47N 47°39' W 003°27'1 2.4
2017-Oct-14 14:31N 47°40' W 003°26'1 2.8
2017-Oct-14 13:59N 47°39' W 003°28'0 0.0
2017-Oct-14 13:29N 47°39' W 003°28'0 0.0
2017-Oct-14 12:47N 47°39' W 003°28'1 2.0
2017-Oct-14 12:30N 47°39' W 003°27'2 4.5
2017-Oct-14 12:00N 47°40' W 003°24'1 2.4
2017-Oct-14 11:30N 47°41' W 003°23'2 3.5
2017-Oct-14 11:00N 47°43' W 003°22'2 4.3
2017-Oct-14 10:30N 47°44' W 003°20'  
Track history (hours):
 
Tides and Currents Weather Stations Pressure Air Temp Water Temp Dewpoint Dewpoint Depression Visibility Wind Speed Wind Dir Waves Ship Positions

L'etrangere

Last reported at 2017-Oct-19 14:24 UTC. Time now 2017-Oct-22 06:45 UTC.
Position N 47°45' W 003°21'.

Length 10 m.

Type: Sailing vessel. MMSI: 227382420.

Date/timePositionNaut miles runAvg speedWind from/ knotsBaromVisibWave heightAir tempDewpointWater temp
2017-Oct-19 14:24N 47°45' W 003°21'0 0.0
2017-Oct-19 13:57N 47°45' W 003°21'0 0.0
2017-Oct-19 13:30N 47°45' W 003°21'0 0.0
2017-Oct-19 13:00N 47°45' W 003°21'0 0.0
2017-Oct-19 12:30N 47°45' W 003°21'0 0.0
2017-Oct-19 12:00N 47°45' W 003°21'0 0.0
2017-Oct-19 11:30N 47°45' W 003°21'0 0.0
2017-Oct-19 11:00N 47°45' W 003°21'0 0.0
2017-Oct-19 10:30N 47°45' W 003°21'0 0.0
2017-Oct-19 10:00N 47°45' W 003°21'1 3.0
2017-Oct-19 09:31N 47°43' W 003°22'2 3.8
2017-Oct-19 09:01N 47°42' W 003°23'2 3.5
2017-Oct-19 08:30N 47°40' W 003°25'2 0.1
2017-Oct-18 14:34N 47°39' W 003°27'1 1.6
2017-Oct-18 14:00N 47°39' W 003°26'1 2.6
2017-Oct-18 13:30N 47°40' W 003°25'2 3.3
2017-Oct-18 13:00N 47°42' W 003°23'1 1.5
2017-Oct-18 12:29N 47°42' W 003°23'0 0.0
2017-Oct-18 11:59N 47°42' W 003°23'0 0.0
2017-Oct-18 11:29N 47°42' W 003°23'0 0.0
2017-Oct-18 10:59N 47°42' W 003°23'2 3.1
2017-Oct-18 10:29N 47°43' W 003°21'  
2017-Oct-14 14:47N 47°39' W 003°27'1 2.4
2017-Oct-14 14:31N 47°40' W 003°26'1 2.8
2017-Oct-14 13:59N 47°39' W 003°28'0 0.0
2017-Oct-14 13:29N 47°39' W 003°28'0 0.0
2017-Oct-14 12:47N 47°39' W 003°28'1 2.0
2017-Oct-14 12:30N 47°39' W 003°27'2 4.5
2017-Oct-14 12:00N 47°40' W 003°24'1 2.4
2017-Oct-14 11:30N 47°41' W 003°23'2 3.5
2017-Oct-14 11:00N 47°43' W 003°22'2 4.3
2017-Oct-14 10:30N 47°44' W 003°20'  

Dump ship's entire track history